Air Resources Laboratory banner image
Air Resources Laboratory web site National Oceanic and Atmospheric Administration (NOAA)

pa metar


KABE 232051Z 00000KT 10SM OVC017 21/16 A2983 RMK AO2 SLP098 60000 T02110161
 55008=
KAFJ 232056Z AUTO 20011G14KT 10SM FEW028 25/18 A2979 RMK AO2 SLP081 T02500183
 55003=
KAGC 232053Z 22015G23KT 10SM BKN043 25/18 A2976 RMK AO2 SLP073 T02500178 55002=
KAOO 232053Z AUTO 16009KT 10SM FEW015 SCT043 BKN080 23/20 A2979 RMK AO2
 RAB12E45 SLP081 P0001 60020 T02330200 58007=
KAVP 232054Z 23006KT 10SM SCT024 BKN070 BKN100 23/18 A2980 RMK AO2 SLP084
 T02280178 56006=
KBFD 232053Z AUTO 22003KT 2 1/2SM RA BR FEW011 SCT030 BKN046 19/18 A2979 RMK
 AO2 LTG DSNT NE AND NW RAE25B46 SLP079 P0001 6//// T01890178 52003 $=
KBTP 232056Z AUTO 22009KT 10SM CLR 24/20 A2977 RMK AO2 RAE03 SLP079 P0003 6////
 T02390200 55001=
KBVI 232047Z 21007KT 10SM SCT029 BKN033 BKN040 24/19 A2976 RMK LAST=
KCXY 232056Z 09004KT 5SM HZ OVC008 22/19 A2980 RMK AO2 SLP090 60000 T02220189
 58005=
KDUJ 232053Z AUTO 21007KT 10SM SCT026 SCT034 SCT045 23/18 A2977 RMK AO2 SLP069
 60001 T02330183 56005=
KDYL 232054Z AUTO 00000KT 10SM OVC007 19/18 A2982 RMK AO2 SLP097 60000
 T01890178 55008=
KERI 232051Z 27006KT 10SM BKN020 24/19 A2972 RMK AO2 SLP059 60018 T02390189
 50006 $=
KFIG 232054Z AUTO VRB04KT 10SM FEW022 SCT033 BKN055 23/19 A2977 RMK AO2 SLP074
 60001 T02280189 58005=
KFKL 232056Z AUTO VRB05KT 10SM FEW017 22/19 A2976 RMK AO2 RAE01 SLP072 P0000
 60017 T02220189 58001=
KGKJ 232053Z AUTO 19004KT 10SM BKN019 BKN025 22/19 A2975 RMK AO2 SLP065 60008
 T02170194 55005=
KIDI 232055Z AUTO VRB04KT 10SM FEW060 SCT070 SCT080 23/20 A2980 RMK A01=
KIPT 232054Z 04004KT 10SM -RA BKN016 OVC041 21/18 A2978 RMK AO2 RAB15 SLP081
 P0004 60004 T02110183 56007=
KJST 232054Z AUTO 24009KT 3SM RA SCT034 BKN049 OVC110 21/18 A2981 RMK AO2 RAB41
 SLP085 P0005 60035 T02110178 55005=
KLBE 232050Z 21006KT 10SM SCT030 BKN045 23/20 A2978=
KLNS 232053Z 09004KT 7SM OVC014 23/20 A2981 RMK AO2 SLP092 T02280200 56009=
KMDT 232056Z 07004KT 7SM OVC010 22/19 A2979 RMK AO2 SLP088 60000 T02170189
 58004=
KMPO 232053Z AUTO 19004KT 10SM OVC008 18/16 A2985 RMK AO2 SLP105 T01780161
 55002=
KMUI 232056Z AUTO 00000KT 10SM OVC008 19/19 A2981 RMK AO2 SLP096 T01930188
 57008 $=
KPHL 232054Z 07003KT 9SM OVC008 22/19 A2982 RMK AO2 SLP097 T02170194 55007=
KPIT 232051Z 25004KT 10SM FEW020 BKN040 BKN090 23/19 A2976 RMK AO2 RAE26 SLP078
 P0031 60031 T02330194 56000 $=
KPNE 232054Z 11003KT 7SM OVC008 22/18 A2983 RMK AO2 SLP100 T02170183 56008=
KPTW 232054Z AUTO 00000KT 6SM BR OVC009 20/18 A2983 RMK AO2 SLP099 60000
 T02000183 55005=
KRDG 232054Z 20003KT 10SM OVC013 21/19 A2981 RMK AO2 SLP098 T02110189 55008=
KSEG 232053Z AUTO VRB05KT 10SM OVC017 22/18 A2979 RMK AO2 SLP086 T02170183
 58008=
KTHV 232053Z AUTO 14003KT 10SM FEW020 SCT024 BKN036 24/20 A2979 RMK AO2 SLP087
 T02390200 58008=
KUNV 232053Z 18009 KT 10SM SCT021 BKN033 OVC065 22/18 A2979=